Time;durP1;ratioP1;P1;durP2;ratioP2;P2;SDS_P1;SDS_P2;PMS_P1;PMS_P2;Temp;Humidity;BMP_temperature;BMP_pressure;BME280_temperature;BME280_humidity;BME280_pressure;Samples;Min_cycle;Max_cycle;Signal;HPM_P1;HPM_P2
2021/04/21 00:01:20;;;;;;;;;54.00;46.00;;;;;11.66;82.27;100602.25;4995030;28;11527;-71
2021/04/21 00:04:18;;;;;;;;;53.50;45.50;;;;;11.58;82.41;100603.97;4995251;28;11503;-70
2021/04/21 00:07:18;;;;;;;;;45.50;41.00;;;;;11.50;82.31;100610.38;4996426;28;11536;-71
2021/04/21 00:10:14;;;;;;;;;50.25;44.00;;;;;11.58;81.96;100612.28;4995058;28;11643;-70
2021/04/21 00:13:10;;;;;;;;;55.50;48.25;;;;;11.52;82.02;100610.03;4997148;28;11533;-71
2021/04/21 00:16:06;;;;;;;;;53.25;45.25;;;;;11.51;82.17;100619.50;4995264;28;11562;-71
2021/04/21 00:19:05;;;;;;;;;50.25;44.50;;;;;11.41;82.50;100620.69;4991503;28;11589;-70
2021/04/21 00:22:03;;;;;;;;;52.00;44.75;;;;;11.49;82.45;100625.34;5009707;28;11593;-71
2021/04/21 00:25:00;;;;;;;;;49.00;42.25;;;;;11.36;82.24;100632.81;5014743;28;11564;-70
2021/04/21 00:27:56;;;;;;;;;53.00;45.75;;;;;11.36;82.32;100643.88;5014517;28;11544;-70
2021/04/21 00:30:56;;;;;;;;;52.50;45.50;;;;;11.19;82.61;100652.28;5014227;28;11518;-70
2021/04/21 00:33:55;;;;;;;;;50.50;43.00;;;;;11.17;82.53;100651.81;5001182;28;11511;-70
2021/04/21 00:36:55;;;;;;;;;51.25;44.50;;;;;11.19;82.40;100657.81;5014194;28;11570;-70
2021/04/21 00:39:50;;;;;;;;;55.75;47.75;;;;;11.02;82.59;100657.94;5015073;28;11549;-70
2021/04/21 00:43:00;;;;;;;;;47.75;42.75;;;;;11.04;82.38;100658.41;5014158;28;12462;-70
2021/04/21 00:46:00;;;;;;;;;55.75;47.50;;;;;10.96;82.37;100667.56;5013744;28;11556;-71
2021/04/21 00:49:42;;;;;;;;;51.75;44.50;;;;;10.85;82.25;100676.25;5013691;28;11632;-71
2021/04/21 00:52:57;;;;;;;;;57.75;48.75;;;;;10.77;82.72;100677.09;5013375;28;11515;-70
2021/04/21 00:56:07;;;;;;;;;54.25;46.75;;;;;10.52;83.49;100687.13;5013321;28;11570;-70
2021/04/21 00:59:34;;;;;;;;;56.75;47.50;;;;;10.58;83.45;100688.59;5015528;28;11584;-70
2021/04/21 01:02:06;;;;;;;;;56.25;47.75;;;;;10.50;83.67;100703.22;5015028;28;11571;-71
2021/04/21 01:05:15;;;;;;;;;53.25;46.00;;;;;10.56;83.56;100698.34;5014202;28;11557;-70
2021/04/21 01:08:17;;;;;;;;;57.00;48.25;;;;;10.54;83.35;100706.97;5013517;28;11549;-70
2021/04/21 01:11:02;;;;;;;;;55.25;47.50;;;;;10.55;83.30;100705.81;5014896;28;11646;-70
2021/04/21 01:14:03;;;;;;;;;59.50;49.50;;;;;10.56;83.12;100712.97;5011950;28;11564;-70
2021/04/21 01:17:04;;;;;;;;;46.00;41.25;;;;;10.57;83.16;100717.34;5013282;28;11611;-70
2021/04/21 01:20:00;;;;;;;;;36.25;35.75;;;;;10.61;82.78;100720.28;5013161;28;11657;-70
2021/04/21 01:23:50;;;;;;;;;52.00;45.75;;;;;10.57;82.64;100727.63;5000059;28;11686;-70
2021/04/21 01:26:57;;;;;;;;;53.75;46.75;;;;;10.47;83.12;100730.75;4960427;28;11686;-70
2021/04/21 01:29:55;;;;;;;;;55.50;45.00;;;;;10.42;83.04;100733.66;5013193;28;11542;-70
2021/04/21 01:32:54;;;;;;;;;51.25;45.00;;;;;10.43;83.39;100732.56;5012937;28;11570;-71
2021/04/21 01:36:14;;;;;;;;;50.00;44.00;;;;;10.42;83.42;100740.00;5012810;28;11624;-70
2021/04/21 01:39:11;;;;;;;;;56.25;47.25;;;;;10.44;83.27;100746.03;5014053;28;11670;-70
2021/04/21 01:42:10;;;;;;;;;51.50;43.25;;;;;10.45;83.10;100747.66;5012844;28;11570;-70
2021/04/21 01:45:07;;;;;;;;;52.00;45.75;;;;;10.43;82.89;100751.91;5012623;28;11663;-71
2021/04/21 01:48:12;;;;;;;;;57.25;46.75;;;;;10.49;82.96;100753.34;5013674;28;11624;-70
2021/04/21 01:51:21;;;;;;;;;57.00;47.75;;;;;10.42;82.41;100758.56;5013923;28;11587;-70
2021/04/21 01:54:19;;;;;;;;;45.50;41.50;;;;;10.25;82.58;100764.91;5001444;28;11568;-69
2021/04/21 01:57:43;;;;;;;;;54.25;46.75;;;;;10.23;83.22;100770.78;5010326;28;12318;-70
2021/04/21 02:00:50;;;;;;;;;54.50;46.75;;;;;10.19;83.25;100777.25;5011011;28;11561;-71
2021/04/21 02:03:54;;;;;;;;;53.25;44.50;;;;;10.21;83.09;100775.00;5012145;28;11544;-70
2021/04/21 02:07:28;;;;;;;;;59.75;49.75;;;;;10.20;83.03;100779.72;5012074;28;11565;-71
2021/04/21 02:10:34;;;;;;;;;57.75;47.75;;;;;10.23;82.53;100783.78;5012291;28;11556;-70
2021/04/21 02:13:48;;;;;;;;;47.75;42.75;;;;;10.11;82.86;100789.94;5012372;28;11770;-70
2021/04/21 02:17:18;;;;;;;;;58.25;48.25;;;;;10.03;82.80;100785.22;5012448;28;11548;-70
2021/04/21 02:20:33;;;;;;;;;56.50;48.25;;;;;10.07;82.39;100793.69;5013641;28;11696;-72
2021/04/21 02:23:43;;;;;;;;;58.25;49.25;;;;;10.11;82.46;100795.47;5012119;28;12304;-71
2021/04/21 02:26:55;;;;;;;;;57.00;47.75;;;;;9.95;82.68;100800.66;5013658;28;11571;-70
2021/04/21 02:29:50;;;;;;;;;59.00;50.00;;;;;9.96;83.00;100793.19;4981639;28;11628;-70
2021/04/21 02:32:58;;;;;;;;;52.50;45.25;;;;;9.99;82.56;100800.84;5011793;28;11548;-70
2021/04/21 02:36:03;;;;;;;;;60.25;51.00;;;;;10.01;81.97;100798.56;5012805;28;11574;-70
2021/04/21 02:39:20;;;;;;;;;60.50;51.25;;;;;9.97;82.43;100803.13;5011173;28;11542;-70
2021/04/21 02:42:27;;;;;;;;;57.50;49.00;;;;;9.93;82.11;100810.41;5011589;28;11568;-71
2021/04/21 02:45:39;;;;;;;;;62.75;52.25;;;;;9.77;82.54;100810.06;5011828;28;11576;-70
2021/04/21 02:49:04;;;;;;;;;59.50;50.00;;;;;9.76;82.57;100825.00;4999315;28;12429;-70
2021/04/21 02:52:17;;;;;;;;;63.00;52.75;;;;;9.64;82.79;100833.91;5012221;28;11541;-71
2021/04/21 02:55:35;;;;;;;;;60.75;48.00;;;;;9.68;82.35;100832.16;5006924;28;11612;-70
2021/04/21 02:58:18;;;;;;;;;56.50;48.75;;;;;9.66;82.51;100842.72;4996232;28;11661;-70
2021/04/21 03:00:57;;;;;;;;;60.00;48.50;;;;;9.67;82.47;100852.63;4993518;28;11649;-71
2021/04/21 03:04:05;;;;;;;;;61.75;52.50;;;;;9.60;82.53;100855.03;5000190;28;11571;-70
2021/04/21 03:07:05;;;;;;;;;62.75;51.75;;;;;9.59;82.31;100858.94;5012185;28;11641;-71
2021/04/21 03:09:49;;;;;;;;;57.75;50.00;;;;;9.65;82.40;100854.06;5012681;28;11575;-71
2021/04/21 03:12:54;;;;;;;;;62.50;53.25;;;;;9.56;82.59;100867.84;4998732;28;11568;-70
2021/04/21 03:15:54;;;;;;;;;57.50;49.75;;;;;9.73;82.28;100867.06;5012065;28;11537;-70
2021/04/21 03:18:50;;;;;;;;;55.75;48.50;;;;;9.62;82.67;100874.03;5011588;28;11580;-70
2021/04/21 03:21:24;;;;;;;;;57.50;49.00;;;;;9.59;82.69;100880.22;5013563;28;12400;-71
2021/04/21 03:24:26;;;;;;;;;56.75;48.00;;;;;9.70;82.20;100893.38;5012844;28;11643;-70
2021/04/21 03:26:58;;;;;;;;;59.00;50.00;;;;;9.73;82.83;100891.94;5013428;28;11585;-69
2021/04/21 03:29:55;;;;;;;;;59.25;48.25;;;;;9.81;82.23;100898.59;5002084;28;11565;-69
2021/04/21 03:33:08;;;;;;;;;55.50;46.75;;;;;9.78;82.22;100911.13;5005499;28;11557;-70
2021/04/21 03:36:06;;;;;;;;;57.50;49.00;;;;;9.90;81.92;100911.34;5014164;28;11552;-70
2021/04/21 03:39:02;;;;;;;;;55.25;48.00;;;;;9.94;82.07;100914.25;5015168;28;11671;-70
2021/04/21 03:41:29;;;;;;;;;55.50;47.25;;;;;10.01;82.06;100920.94;4998691;28;11626;-70
2021/04/21 03:44:25;;;;;;;;;59.50;48.50;;;;;10.02;81.69;100925.31;5003538;28;11595;-70
2021/04/21 03:47:21;;;;;;;;;49.75;44.25;;;;;9.98;81.78;100929.06;4997376;28;11619;-70
2021/04/21 03:50:17;;;;;;;;;55.25;47.25;;;;;10.09;81.75;100927.63;4995864;28;11608;-70
2021/04/21 03:53:17;;;;;;;;;53.75;46.50;;;;;10.07;81.90;100940.13;5002012;28;11526;-71
2021/04/21 03:56:18;;;;;;;;;56.50;47.50;;;;;10.19;81.77;100951.38;4982574;28;11648;-70
2021/04/21 03:59:16;;;;;;;;;58.50;48.50;;;;;10.28;81.08;100958.59;5013825;28;11638;-71
2021/04/21 04:02:07;;;;;;;;;53.50;46.25;;;;;10.23;81.27;100957.94;5016896;28;11593;-71
2021/04/21 04:05:07;;;;;;;;;50.25;44.00;;;;;10.33;81.14;100965.91;4993665;28;11571;-71
2021/04/21 04:08:08;;;;;;;;;51.00;44.25;;;;;10.21;80.03;100963.75;4995031;28;11742;-73
2021/04/21 04:10:58;;;;;;;;;52.50;44.25;;;;;10.38;79.90;100967.72;4992171;28;11558;-71
2021/04/21 04:14:02;;;;;;;;;59.00;48.25;;;;;10.52;79.77;100971.97;5004847;28;11571;-71
2021/04/21 04:17:00;;;;;;;;;48.25;43.00;;;;;10.57;79.58;100979.28;5013529;28;11577;-71
2021/04/21 04:19:31;;;;;;;;;55.75;47.50;;;;;10.53;79.66;100973.59;5015556;28;11610;-71
2021/04/21 04:22:30;;;;;;;;;53.75;46.50;;;;;10.61;79.66;100985.81;5013902;28;11651;-71
2021/04/21 04:25:29;;;;;;;;;56.75;48.00;;;;;10.65;78.40;100989.53;5014445;28;11586;-71
2021/04/21 04:28:03;;;;;;;;;59.25;49.00;;;;;10.69;78.51;100990.53;5015802;28;11761;-70
2021/04/21 04:30:31;;;;;;;;;50.25;44.00;;;;;10.79;77.84;100992.97;4997823;28;11640;-72
2021/04/21 04:33:05;;;;;;;;;50.00;43.75;;;;;10.92;77.63;100998.69;4994249;28;11599;-72
2021/04/21 04:36:02;;;;;;;;;55.50;46.50;;;;;11.03;77.24;101000.78;4996637;28;11543;-71
2021/04/21 04:38:58;;;;;;;;;52.00;45.25;;;;;11.12;77.28;101006.31;4980756;28;11552;-70
2021/04/21 04:41:55;;;;;;;;;51.25;43.25;;;;;11.23;77.48;101017.88;5001534;28;11545;-72
2021/04/21 04:44:51;;;;;;;;;49.25;42.75;;;;;11.26;76.79;101025.50;4997244;28;11661;-75
2021/04/21 04:47:43;;;;;;;;;53.25;44.50;;;;;11.24;75.58;101023.06;5011563;28;11589;-76
2021/04/21 04:50:16;;;;;;;;;55.00;46.00;;;;;11.37;75.67;101029.59;5015453;28;11612;-77
2021/04/21 04:52:50;;;;;;;;;44.25;39.75;;;;;11.33;75.21;101025.81;4999650;28;11640;-76
2021/04/21 04:55:20;;;;;;;;;51.25;43.00;;;;;11.43;74.98;101033.81;5014382;28;11744;-76
2021/04/21 04:58:20;;;;;;;;;44.75;39.75;;;;;12.12;81.63;101032.84;5014451;28;11510;-77
2021/04/21 05:01:16;;;;;;;;;50.00;43.00;;;;;12.53;79.81;101041.25;4994243;28;11606;-77
2021/04/21 05:04:14;;;;;;;;;50.50;44.25;;;;;12.93;81.42;101032.47;5010959;28;11540;-77
2021/04/21 05:07:12;;;;;;;;;47.00;41.50;;;;;12.96;74.09;101042.13;5014236;28;12381;-77
2021/04/21 05:10:16;;;;;;;;;54.25;45.00;;;;;12.85;73.25;101041.69;5010559;28;11510;-77
2021/04/21 05:13:02;;;;;;;;;52.25;44.25;;;;;13.18;74.28;101043.72;5014783;28;11522;-77
2021/04/21 05:15:32;;;;;;;;;52.75;45.25;;;;;13.22;76.20;101051.06;5013267;28;11602;-77
2021/04/21 05:19:05;;;;;;;;;44.25;39.50;;;;;12.94;72.18;101049.94;5000424;28;11575;-77
2021/04/21 05:21:33;;;;;;;;;53.25;43.25;;;;;13.27;71.85;101056.44;5011866;28;12349;-77
2021/04/21 05:24:51;;;;;;;;;51.75;44.75;;;;;13.34;76.25;101056.69;5013149;28;11530;-78
2021/04/21 05:28:29;;;;;;;;;44.75;39.75;;;;;14.03;76.94;101059.88;5013085;28;11517;-79
2021/04/21 05:31:15;;;;;;;;;50.75;43.50;;;;;14.03;75.35;101066.28;4993733;28;11245;-78
2021/04/21 05:34:34;;;;;;;;;51.00;43.75;;;;;14.06;72.14;101062.00;4980144;28;11230;-76
2021/04/21 05:37:34;;;;;;;;;50.00;43.25;;;;;14.13;72.46;101063.03;5012373;28;11201;-77
2021/04/21 05:40:55;;;;;;;;;47.50;42.00;;;;;14.25;69.69;101065.00;5014544;28;11147;-77
2021/04/21 05:44:54;;;;;;;;;44.50;40.25;;;;;14.33;70.11;101071.63;4971330;28;10998;-76
2021/04/21 05:48:27;;;;;;;;;42.25;37.00;;;;;14.46;71.42;101076.88;4970605;28;10862;-77
2021/04/21 05:51:46;;;;;;;;;40.50;37.50;;;;;14.41;69.10;101079.03;4986495;28;10903;-78
2021/04/21 05:54:41;;;;;;;;;47.25;41.50;;;;;14.78;72.30;101085.44;4949219;28;10690;-77
2021/04/21 05:58:14;;;;;;;;;38.50;36.50;;;;;14.99;69.98;101083.31;4998284;28;10926;-78
2021/04/21 06:01:00;;;;;;;;;44.00;39.00;;;;;15.08;72.26;101085.16;5013809;28;10646;-78
2021/04/21 06:03:30;;;;;;;;;39.25;36.00;;;;;14.70;64.99;101089.97;5015903;28;11252;-76
2021/04/21 06:06:26;;;;;;;;;40.50;37.50;;;;;15.18;70.44;101087.44;5012708;28;10440;-77
2021/04/21 06:09:26;;;;;;;;;39.00;36.50;;;;;14.93;65.64;101086.69;5013295;28;10414;-77
2021/04/21 06:12:09;;;;;;;;;43.25;38.50;;;;;15.13;68.87;101085.75;4997556;28;10286;-76
2021/04/21 06:14:39;;;;;;;;;41.50;38.25;;;;;15.13;69.47;101093.28;5013671;28;10458;-75
2021/04/21 06:17:07;;;;;;;;;40.25;36.75;;;;;14.98;64.78;101100.41;5013540;28;10436;-78
2021/04/21 06:20:04;;;;;;;;;36.50;35.00;;;;;15.44;67.52;101100.97;5012566;28;10517;-78
2021/04/21 06:23:03;;;;;;;;;34.50;33.50;;;;;15.34;66.05;101110.66;5012165;28;10229;-77
2021/04/21 06:26:03;;;;;;;;;42.00;38.50;;;;;15.83;69.23;101111.28;5013018;28;10030;-77
2021/04/21 06:29:08;;;;;;;;;38.00;35.50;;;;;15.98;69.37;101114.47;5014316;28;10319;-77
2021/04/21 06:32:06;;;;;;;;;30.00;28.25;;;;;16.00;65.10;101104.56;5011643;28;10073;-77
2021/04/21 06:35:10;;;;;;;;;38.25;35.00;;;;;15.99;61.71;101111.31;5016667;28;9543;-75
2021/04/21 06:38:22;;;;;;;;;31.25;31.25;;;;;16.02;62.41;101115.34;4983420;28;9474;-76
2021/04/21 06:41:23;;;;;;;;;26.75;26.75;;;;;15.19;62.56;101120.56;5012752;28;9956;-75
2021/04/21 06:43:56;;;;;;;;;14.25;13.25;;;;;15.64;63.72;101108.38;5015284;28;9496;-74
2021/04/21 06:46:51;;;;;;;;;28.25;28.00;;;;;15.56;62.07;101114.84;5002130;28;9959;-74
2021/04/21 06:50:04;;;;;;;;;34.75;33.75;;;;;15.57;62.20;101119.28;4999207;28;9623;-77
2021/04/21 06:52:43;;;;;;;;;27.25;27.25;;;;;15.74;60.70;101124.59;5013085;28;9941;-75
2021/04/21 07:04:33;;;;;;;;;23.33;23.33;;;;;15.76;57.93;101127.81;5002554;28;9285;-74
2021/04/21 07:07:29;;;;;;;;;18.00;17.00;;;;;16.14;59.55;101132.03;5014928;28;9419;-73
2021/04/21 07:10:26;;;;;;;;;20.33;20.33;;;;;15.89;56.79;101127.78;5016751;28;9451;-74
2021/04/21 07:13:45;;;;;;;;;18.67;18.67;;;;;16.05;56.75;101137.78;5015927;28;9373;-74
2021/04/21 07:16:41;;;;;;;;;23.67;23.67;;;;;16.37;57.03;101143.41;5016362;28;9403;-74
2021/04/21 07:19:39;;;;;;;;;26.33;26.33;;;;;16.75;54.75;101145.59;4996767;28;9365;-75
2021/04/21 07:22:37;;;;;;;;;24.67;24.67;;;;;16.76;54.60;101144.41;5016155;28;9161;-74
2021/04/21 07:25:33;;;;;;;;;20.67;20.67;;;;;16.54;55.40;101139.44;5002744;28;9420;-71
2021/04/21 07:28:31;;;;;;;;;17.33;17.33;;;;;16.35;54.09;101146.56;5016010;28;9082;-70
2021/04/21 07:31:26;;;;;;;;;23.67;23.67;;;;;16.78;54.14;101141.25;5014949;28;9353;-71
2021/04/21 07:34:34;;;;;;;;;24.33;24.33;;;;;17.20;53.25;101145.06;5016254;28;9365;-70
2021/04/21 07:37:43;;;;;;;;;14.00;14.00;;;;;17.41;51.11;101149.53;5003186;28;9141;-70
2021/04/21 07:40:39;;;;;;;;;15.75;15.75;;;;;17.36;49.41;101159.00;4996620;28;8848;-70
2021/04/21 07:43:44;;;;;;;;;17.00;17.00;;;;;17.28;48.74;101150.81;5015128;28;8840;-70
2021/04/21 07:46:39;;;;;;;;;18.00;18.00;;;;;17.07;49.74;101151.13;5014903;28;8880;-70
2021/04/21 07:49:39;;;;;;;;;20.25;18.25;;;;;16.92;48.01;101161.16;5015331;28;9074;-70
2021/04/21 07:52:36;;;;;;;;;18.67;18.67;;;;;17.18;48.80;101169.78;5015431;28;8855;-70
2021/04/21 07:55:33;;;;;;;;;19.25;19.25;;;;;17.39;48.71;101163.03;4996989;28;8959;-70
2021/04/21 07:58:29;;;;;;;;;17.50;17.50;;;;;17.76;50.88;101166.25;5014132;28;8871;-70
2021/04/21 08:01:35;;;;;;;;;17.25;17.25;;;;;18.08;48.07;101163.28;5015729;28;8855;-71
2021/04/21 08:04:31;;;;;;;;;16.75;16.75;;;;;17.68;46.33;101170.88;5012242;28;8953;-70
2021/04/21 08:07:34;;;;;;;;;20.25;20.25;;;;;17.62;47.97;101177.91;5013853;28;8840;-70
2021/04/21 08:10:34;;;;;;;;;22.50;22.00;;;;;17.01;45.97;101188.91;5015068;28;8844;-70
2021/04/21 08:13:45;;;;;;;;;16.50;16.50;;;;;17.29;48.19;101175.59;5013859;28;8844;-71
2021/04/21 08:16:34;;;;;;;;;16.67;15.67;;;;;17.29;48.73;101172.00;5001786;28;8910;-71
2021/04/21 08:19:20;;;;;;;;;21.75;21.50;;;;;17.23;50.03;101179.84;5015839;28;8938;-71
2021/04/21 08:21:48;;;;;;;;;17.50;17.50;;;;;17.15;48.58;101180.84;4997530;28;8844;-72
2021/04/21 08:24:45;;;;;;;;;19.00;19.00;;;;;17.61;50.56;101176.31;4983930;28;8977;-70
2021/04/21 08:27:41;;;;;;;;;19.00;18.75;;;;;17.34;46.30;101183.72;4995247;28;8861;-71
2021/04/21 08:30:18;;;;;;;;;21.50;21.50;;;;;17.45;48.30;101178.34;5015699;28;8844;-70
2021/04/21 08:32:45;;;;;;;;;19.00;19.00;;;;;17.10;46.42;101179.19;5015337;28;8844;-70
2021/04/21 08:35:41;;;;;;;;;16.00;16.00;;;;;17.04;48.81;101188.19;5014678;28;8844;-70
2021/04/21 08:38:36;;;;;;;;;17.00;17.00;;;;;17.29;49.56;101180.38;5001700;28;8836;-70
2021/04/21 08:41:48;;;;;;;;;15.75;15.75;;;;;17.54;48.43;101183.72;5015027;28;8863;-72
2021/04/21 08:44:43;;;;;;;;;15.75;15.75;;;;;17.47;46.95;101189.97;5014382;28;8890;-71
2021/04/21 08:47:41;;;;;;;;;18.25;17.75;;;;;18.20;46.72;101185.53;4990965;28;9593;-71
2021/04/21 08:50:37;;;;;;;;;22.50;22.00;;;;;18.41;48.72;101182.31;5006826;28;8836;-70
2021/04/21 08:53:36;;;;;;;;;13.50;13.50;;;;;18.43;45.58;101179.94;5013972;28;9161;-72
2021/04/21 08:56:18;;;;;;;;;16.50;14.50;;;;;18.72;46.91;101184.09;4999454;28;8860;-71
2021/04/21 08:58:54;;;;;;;;;12.25;12.25;;;;;17.99;44.58;101186.72;4999545;28;8884;-71
2021/04/21 09:01:50;;;;;;;;;17.75;16.75;;;;;18.19;47.42;101183.91;5015486;28;8951;-71
2021/04/21 09:04:46;;;;;;;;;14.25;14.25;;;;;17.88;43.95;101190.50;5014402;28;8867;-71
2021/04/21 09:07:44;;;;;;;;;16.50;16.50;;;;;18.72;45.86;101184.91;5012449;28;8864;-69
2021/04/21 09:10:42;;;;;;;;;11.00;11.00;;;;;17.95;44.36;101191.44;5013506;28;8925;-70
2021/04/21 09:13:38;;;;;;;;;15.00;13.50;;;;;18.60;43.89;101187.84;4993955;28;9740;-71
2021/04/21 09:16:32;;;;;;;;;10.75;10.75;;;;;18.41;42.80;101188.72;4994748;28;8848;-71
2021/04/21 09:19:15;;;;;;;;;10.00;10.00;;;;;18.73;43.84;101188.50;5014166;28;9593;-72
2021/04/21 09:21:43;;;;;;;;;14.75;14.75;;;;;18.89;42.40;101195.59;5015021;28;8866;-71
2021/04/21 09:24:26;;;;;;;;;11.25;11.25;;;;;18.53;40.97;101190.53;5013317;28;8868;-71
2021/04/21 09:27:34;;;;;;;;;8.00;8.00;;;;;17.92;41.36;101203.34;5014005;28;8879;-71
2021/04/21 09:30:33;;;;;;;;;12.25;12.25;;;;;18.36;43.29;101199.41;5013437;28;8863;-74
2021/04/21 09:33:40;;;;;;;;;9.75;9.75;;;;;18.37;41.01;101198.22;4989110;28;9342;-71
2021/04/21 09:36:39;;;;;;;;;12.25;12.25;;;;;18.82;42.13;101200.28;5014854;28;8852;-73
2021/04/21 09:39:37;;;;;;;;;10.00;10.00;;;;;17.84;41.46;101198.78;5014391;28;9640;-69
2021/04/21 09:42:33;;;;;;;;;11.75;11.75;;;;;18.45;40.95;101213.97;5014300;28;8942;-70
2021/04/21 09:45:15;;;;;;;;;5.50;5.50;;;;;17.70;38.85;101206.84;5014925;28;8891;-70
2021/04/21 09:48:05;;;;;;;;;6.00;6.00;;;;;17.83;38.87;101213.97;5025913;28;8963;-71
2021/04/21 09:51:07;;;;;;;;;6.00;6.00;;;;;17.46;40.38;101207.94;5001770;28;8848;-70
2021/04/21 09:54:03;;;;;;;;;10.00;9.25;;;;;18.29;40.89;101211.28;5014677;28;9014;-72
2021/04/21 09:57:22;;;;;;;;;7.75;7.75;;;;;18.18;38.73;101215.88;5013280;28;8936;-70
2021/04/21 10:00:19;;;;;;;;;6.25;6.25;;;;;17.96;38.93;101211.84;4999767;28;8971;-70
2021/04/21 10:03:15;;;;;;;;;7.50;7.50;;;;;18.30;39.42;101224.09;5005385;28;8942;-71
2021/04/21 10:06:21;;;;;;;;;8.50;8.50;;;;;18.76;37.73;101210.97;4994399;28;8889;-71
2021/04/21 10:09:56;;;;;;;;;9.75;9.75;;;;;18.72;39.45;101212.13;4967825;28;8901;-71
2021/04/21 10:12:54;;;;;;;;;10.25;10.25;;;;;18.98;40.33;101219.75;4960805;28;9026;-71
2021/04/21 10:15:47;;;;;;;;;8.00;8.00;;;;;18.49;37.86;101215.69;4968859;28;8884;-71
2021/04/21 10:18:35;;;;;;;;;8.75;8.75;;;;;18.05;40.25;101226.41;4989048;28;8923;-70
2021/04/21 10:21:18;;;;;;;;;8.75;8.75;;;;;18.34;42.61;101233.41;4990711;28;8858;-71
2021/04/21 10:24:20;;;;;;;;;9.25;9.25;;;;;18.54;41.91;101225.75;4974296;28;8976;-71
2021/04/21 10:27:16;;;;;;;;;11.75;11.75;;;;;19.08;44.07;101225.50;4974501;28;9007;-72
2021/04/21 10:30:12;;;;;;;;;8.25;8.25;;;;;18.79;41.82;101213.03;4974375;28;8860;-71
2021/04/21 10:32:40;;;;;;;;;8.00;8.00;;;;;18.97;41.31;101220.94;4973822;28;8861;-70
2021/04/21 10:35:16;;;;;;;;;7.75;7.75;;;;;19.26;42.14;101225.00;4975171;28;9539;-71
2021/04/21 10:38:00;;;;;;;;;8.00;8.00;;;;;19.47;41.49;101218.88;4974310;28;8869;-70
2021/04/21 10:40:43;;;;;;;;;7.50;7.50;;;;;18.86;42.06;101226.34;4972733;28;9614;-72
2021/04/21 10:43:10;;;;;;;;;8.00;7.50;;;;;19.30;41.59;101225.84;4971285;28;8877;-71
2021/04/21 10:46:06;;;;;;;;;10.00;10.00;;;;;19.19;40.62;101233.31;4976720;28;8865;-73
2021/04/21 10:48:39;;;;;;;;;9.75;9.75;;;;;19.37;40.68;101232.38;4973182;28;8931;-71
2021/04/21 10:51:47;;;;;;;;;8.50;8.50;;;;;19.36;40.37;101233.56;4973816;28;8879;-69
2021/04/21 10:54:31;;;;;;;;;11.50;11.50;;;;;19.54;39.33;101239.44;4975888;28;8870;-69
2021/04/21 10:57:27;;;;;;;;;7.00;7.00;;;;;19.12;38.64;101231.19;4975647;28;8853;-69
2021/04/21 11:00:15;;;;;;;;;7.50;7.50;;;;;19.93;38.92;101225.16;4967982;28;8904;-69
2021/04/21 11:02:47;;;;;;;;;8.50;8.50;;;;;19.79;39.13;101227.81;4971441;28;8869;-70
2021/04/21 11:05:47;;;;;;;;;8.00;8.00;;;;;19.60;38.55;101221.13;4973655;28;8873;-68
2021/04/21 11:08:53;;;;;;;;;9.25;9.00;;;;;19.55;39.47;101227.06;5003357;28;8852;-69
2021/04/21 11:11:52;;;;;;;;;8.00;8.00;;;;;19.32;38.24;101217.88;5012666;28;8863;-69
2021/04/21 11:14:48;;;;;;;;;7.25;7.25;;;;;19.45;39.11;101208.84;4990088;28;8921;-71
2021/04/21 11:18:09;;;;;;;;;7.00;7.00;;;;;19.08;37.44;101222.72;5002798;28;8844;-70
2021/04/21 11:20:48;;;;;;;;;6.50;6.50;;;;;19.96;39.15;101213.19;4987558;28;8840;-72
2021/04/21 11:23:50;;;;;;;;;10.00;8.75;;;;;20.21;37.52;101228.31;5014255;28;8884;-72
2021/04/21 11:26:37;;;;;;;;;10.00;7.75;;;;;20.64;36.78;101220.38;5000182;28;8860;-73
2021/04/21 11:29:34;;;;;;;;;7.00;7.00;;;;;21.03;35.56;101222.72;4998296;28;8858;-71
2021/04/21 11:32:01;;;;;;;;;6.75;6.75;;;;;20.55;35.63;101214.28;5012980;28;8876;-72
2021/04/21 11:35:36;;;;;;;;;7.75;7.75;;;;;20.96;35.00;101209.41;5012026;28;8868;-70
2021/04/21 11:38:43;;;;;;;;;6.75;6.75;;;;;19.88;37.16;101208.66;5008614;28;8930;-70
2021/04/21 11:41:41;;;;;;;;;8.75;8.75;;;;;19.74;38.36;101203.69;5000026;28;9601;-72
2021/04/21 11:44:49;;;;;;;;;8.75;8.75;;;;;20.26;38.31;101207.50;5010164;28;8863;-72
2021/04/21 11:48:01;;;;;;;;;11.50;11.50;;;;;20.92;35.42;101199.31;5012352;28;8963;-73
2021/04/21 11:50:45;;;;;;;;;8.00;8.00;;;;;20.12;34.90;101207.34;5007270;28;8887;-70
2021/04/21 11:53:41;;;;;;;;;10.25;9.00;;;;;20.02;36.07;101211.66;5015077;28;8983;-71
2021/04/21 11:56:24;;;;;;;;;8.00;8.00;;;;;19.76;35.80;101211.72;5015889;28;8848;-70
2021/04/21 11:59:19;;;;;;;;;7.50;7.50;;;;;19.06;36.97;101229.88;5014073;28;8998;-71
2021/04/21 12:02:17;;;;;;;;;23.75;16.25;;;;;19.33;40.26;101223.13;5001836;28;8817;-71
2021/04/21 12:05:01;;;;;;;;;5.00;5.00;;;;;19.05;36.55;101217.88;5016296;28;8852;-71
2021/04/21 12:07:51;;;;;;;;;8.00;8.00;;;;;20.02;36.40;101224.88;5016255;28;8910;-71
2021/04/21 12:10:48;;;;;;;;;7.75;6.75;;;;;20.60;36.14;101216.72;5002367;28;8832;-71
2021/04/21 12:13:31;;;;;;;;;9.00;9.00;;;;;20.52;35.08;101226.25;5015527;28;8874;-71
2021/04/21 12:16:10;;;;;;;;;8.25;8.25;;;;;20.28;35.57;101217.16;4995935;28;8850;-71
2021/04/21 12:19:00;;;;;;;;;6.00;6.00;;;;;19.57;36.60;101207.06;4982298;28;8846;-71
2021/04/21 12:22:15;;;;;;;;;9.50;9.50;;;;;19.78;39.52;101204.50;4983019;28;9722;-72
2021/04/21 12:25:09;;;;;;;;;9.00;9.00;;;;;20.03;37.66;101202.03;4996064;28;8855;-72
2021/04/21 12:28:05;;;;;;;;;6.75;6.75;;;;;19.53;36.90;101206.16;4995097;28;8846;-70
2021/04/21 12:31:00;;;;;;;;;12.00;12.00;;;;;19.94;38.32;101191.13;4995286;28;8831;-72
2021/04/21 12:34:01;;;;;;;;;5.75;5.75;;;;;20.28;37.84;101213.53;4995682;28;8854;-71
2021/04/21 12:50:50;;;;;;;;;8.33;8.33;;;;;20.25;39.67;101215.13;5100919;27;973375;-73
2021/04/21 12:53:46;;;;;;;;;11.75;11.75;;;;;21.25;37.83;101210.44;5096587;28;11474;-73
2021/04/21 12:56:42;;;;;;;;;7.00;7.00;;;;;20.87;35.88;101211.75;5110446;28;8928;-73
2021/04/21 12:59:41;;;;;;;;;8.00;8.00;;;;;20.96;36.18;101214.22;5109504;28;8962;-74
2021/04/21 13:02:15;;;;;;;;;8.50;8.50;;;;;22.12;36.02;101206.91;5126615;27;8853;-74
2021/04/21 13:04:47;;;;;;;;;7.25;7.25;;;;;22.23;35.19;101204.09;5122764;28;8835;-73
2021/04/21 13:07:20;;;;;;;;;6.75;6.75;;;;;22.74;34.04;101213.06;5124936;27;8856;-73
2021/04/21 13:09:48;;;;;;;;;6.25;6.25;;;;;22.64;34.18;101213.88;5119758;28;9555;-73
2021/04/21 13:12:24;;;;;;;;;7.75;7.75;;;;;21.82;34.04;101224.84;5092751;28;8836;-74
2021/04/21 13:14:51;;;;;;;;;7.50;7.50;;;;;22.19;33.02;101216.19;5117462;27;8920;-73
2021/04/21 13:17:56;;;;;;;;;6.25;6.25;;;;;22.03;33.22;101207.25;5111643;27;8827;-73
2021/04/21 13:20:52;;;;;;;;;7.25;7.25;;;;;21.47;34.34;101213.41;5113660;28;8929;-74
2021/04/21 13:23:52;;;;;;;;;2.75;2.75;;;;;21.78;33.42;101220.44;5112948;28;8943;-75
2021/04/21 13:26:56;;;;;;;;;5.00;5.00;;;;;21.91;34.88;101219.66;5095729;28;8861;-74
2021/04/21 13:30:11;;;;;;;;;7.00;7.00;;;;;22.04;34.53;101214.50;5108902;27;8836;-75
2021/04/21 13:32:51;;;;;;;;;8.25;8.25;;;;;21.99;33.67;101212.06;5113019;27;8880;-74
2021/04/21 13:35:47;;;;;;;;;10.00;10.00;;;;;21.96;35.23;101206.41;5129686;27;8864;-72
2021/04/21 13:38:43;;;;;;;;;10.75;10.75;;;;;21.77;35.17;101215.97;5129175;27;8844;-73
2021/04/21 13:41:18;;;;;;;;;6.00;6.00;;;;;22.19;34.54;101215.38;5126233;27;8822;-71
2021/04/21 13:43:50;;;;;;;;;10.00;10.00;;;;;21.70;35.36;101224.38;5129380;27;8843;-72
2021/04/21 13:46:37;;;;;;;;;10.25;10.25;;;;;21.97;37.29;101224.91;5116866;28;8962;-72
2021/04/21 13:49:05;;;;;;;;;12.50;12.50;;;;;21.96;37.47;101223.31;5093390;27;8870;-72
2021/04/21 13:51:47;;;;;;;;;11.25;11.25;;;;;21.98;38.36;101223.72;5120503;28;9017;-73
2021/04/21 13:54:30;;;;;;;;;11.25;10.50;;;;;21.59;38.88;101229.97;5109717;27;8865;-72